createdAt,value
2017-08-26T00:01:07.634Z,17.50
2017-08-26T00:03:35.196Z,14.80
2017-08-26T00:06:02.753Z,19.13
2017-08-26T00:08:30.241Z,17.20
2017-08-26T00:10:57.863Z,17.53
2017-08-26T00:13:25.504Z,16.40
2017-08-26T00:15:53.011Z,17.70
2017-08-26T00:18:20.583Z,16.47
2017-08-26T00:20:48.067Z,14.87
2017-08-26T00:23:26.785Z,16.40
2017-08-26T00:25:54.398Z,12.90
2017-08-26T00:28:21.978Z,15.20
2017-08-26T00:30:49.746Z,13.03
2017-08-26T00:33:17.310Z,14.00
2017-08-26T00:35:44.807Z,12.70
2017-08-26T00:38:12.328Z,15.37
2017-08-26T00:40:39.886Z,12.87
2017-08-26T00:43:07.805Z,12.53
2017-08-26T00:45:35.354Z,12.43
2017-08-26T00:48:03.083Z,11.90
2017-08-26T00:50:30.643Z,12.63
2017-08-26T00:52:58.099Z,15.37
2017-08-26T00:55:25.754Z,14.00
2017-08-26T00:57:54.498Z,14.87
2017-08-26T01:05:57.609Z,13.50
2017-08-26T01:08:25.196Z,14.60
2017-08-26T01:10:59.769Z,11.47
2017-08-26T01:13:27.227Z,11.07
2017-08-26T01:15:54.679Z,14.53
2017-08-26T01:18:22.204Z,14.53
2017-08-26T01:20:49.683Z,10.37
2017-08-26T01:23:17.280Z,12.63
2017-08-26T01:25:44.824Z,16.20
2017-08-26T01:28:12.388Z,14.40
2017-08-26T01:30:39.837Z,14.90
2017-08-26T01:33:07.298Z,13.67
2017-08-26T01:35:34.755Z,12.33
2017-08-26T01:38:02.320Z,12.50
2017-08-26T01:40:29.783Z,14.30
2017-08-26T01:42:57.312Z,13.60
2017-08-26T01:45:24.863Z,12.83
2017-08-26T01:47:52.353Z,11.23
2017-08-26T01:50:19.798Z,11.70
2017-08-26T01:52:47.256Z,11.70
2017-08-26T01:55:14.732Z,9.83
2017-08-26T01:57:42.211Z,11.23
2017-08-26T02:00:09.656Z,11.13
2017-08-26T02:02:37.129Z,11.40
2017-08-26T02:05:04.665Z,10.40
2017-08-26T02:07:32.144Z,17.70
2017-08-26T02:09:59.625Z,11.43
2017-08-26T02:12:27.122Z,12.80
2017-08-26T02:14:54.569Z,11.07
2017-08-26T02:17:22.051Z,13.97
2017-08-26T02:19:49.540Z,10.90
2017-08-26T02:22:17.023Z,9.77
2017-08-26T02:24:44.509Z,15.40
2017-08-26T02:27:11.960Z,13.47
2017-08-26T02:29:39.403Z,10.63
2017-08-26T02:32:06.976Z,15.00
2017-08-26T02:34:34.417Z,9.80
2017-08-26T02:37:01.889Z,9.97
2017-08-26T02:39:29.339Z,10.03
2017-08-26T02:41:56.840Z,9.47
2017-08-26T02:44:24.275Z,12.97
2017-08-26T02:46:51.796Z,13.13
2017-08-26T02:49:19.291Z,10.43
2017-08-26T02:51:46.757Z,10.53
2017-08-26T02:54:14.237Z,11.40
2017-08-26T02:56:41.671Z,10.93
2017-08-26T02:59:09.119Z,11.63
2017-08-26T03:01:36.642Z,14.10
2017-08-26T03:04:04.082Z,13.40
2017-08-26T03:06:31.556Z,10.93
2017-08-26T03:08:59.003Z,18.50
2017-08-26T03:11:26.444Z,12.77
2017-08-26T03:13:53.890Z,11.90
2017-08-26T03:16:21.331Z,12.03
2017-08-26T03:18:49.495Z,12.90
2017-08-26T03:21:16.936Z,15.80
2017-08-26T03:23:44.392Z,17.67
2017-08-26T03:26:11.828Z,13.80
2017-08-26T03:28:39.274Z,16.43
2017-08-26T03:31:06.714Z,11.20
2017-08-26T03:33:34.165Z,14.00
2017-08-26T03:36:01.611Z,14.83
2017-08-26T03:38:29.056Z,14.43
2017-08-26T03:40:56.492Z,13.77
2017-08-26T03:43:23.942Z,11.70
2017-08-26T03:45:51.384Z,12.03
2017-08-26T03:48:18.827Z,13.63
2017-08-26T03:50:46.270Z,14.70
2017-08-26T03:53:13.723Z,15.57
2017-08-26T03:55:41.158Z,14.67
2017-08-26T03:58:08.607Z,18.60
2017-08-26T04:00:36.256Z,16.35
2017-08-26T04:03:06.067Z,13.60
2017-08-26T04:05:46.187Z,15.77
2017-08-26T04:08:25.964Z,13.90
2017-08-26T04:10:53.524Z,14.97
2017-08-26T04:13:31.894Z,16.73
2017-08-26T04:15:59.728Z,13.13
2017-08-26T04:18:27.773Z,15.03
2017-08-26T04:20:57.197Z,13.30
2017-08-26T04:23:41.849Z,15.97
2017-08-26T04:26:13.621Z,14.30
2017-08-26T04:29:00.106Z,15.00
2017-08-26T04:31:29.627Z,14.23
2017-08-26T04:33:57.778Z,12.10
2017-08-26T04:36:26.796Z,13.80
2017-08-26T04:38:54.570Z,13.03
2017-08-26T04:41:23.556Z,19.97
2017-08-26T04:43:52.845Z,15.37
2017-08-26T04:46:21.468Z,13.50
2017-08-26T04:48:50.253Z,12.40
2017-08-26T04:51:17.841Z,13.00
2017-08-26T04:59:01.605Z,13.53
2017-08-26T05:01:29.052Z,17.77
2017-08-26T05:03:56.496Z,14.70
2017-08-26T05:06:23.940Z,15.40
2017-08-26T05:08:51.375Z,15.97
2017-08-26T05:11:18.831Z,14.03
2017-08-26T05:13:46.269Z,10.60
2017-08-26T05:16:13.708Z,13.07
2017-08-26T05:18:41.140Z,13.10
2017-08-26T05:21:08.584Z,15.47
2017-08-26T05:23:36.023Z,11.33
2017-08-26T05:26:03.472Z,12.70
2017-08-26T05:28:30.917Z,10.90
2017-08-26T05:30:58.363Z,12.60
2017-08-26T05:33:25.808Z,19.97
2017-08-26T05:35:53.252Z,11.17
2017-08-26T05:38:20.700Z,14.27
2017-08-26T05:40:48.144Z,26.73
2017-08-26T05:43:15.596Z,13.50
2017-08-26T05:45:43.043Z,15.70
2017-08-26T05:48:10.479Z,15.07
2017-08-26T05:50:37.924Z,12.20
2017-08-26T05:53:05.366Z,14.15
2017-08-26T05:55:32.799Z,11.57
2017-08-26T05:58:00.243Z,12.63
2017-08-26T06:00:27.683Z,9.80
2017-08-26T06:02:55.119Z,9.80
2017-08-26T06:05:22.558Z,11.07
2017-08-26T06:07:50.003Z,14.20
2017-08-26T06:10:17.483Z,10.17
2017-08-26T06:12:44.919Z,10.50
2017-08-26T06:15:12.356Z,17.63
2017-08-26T06:17:39.799Z,9.60
2017-08-26T06:20:07.233Z,9.53
2017-08-26T06:22:34.678Z,11.20
2017-08-26T06:25:02.110Z,7.97
2017-08-26T06:27:29.560Z,9.67
2017-08-26T06:29:56.999Z,11.60
2017-08-26T06:32:24.443Z,8.47
2017-08-26T06:34:51.883Z,10.07
2017-08-26T06:37:19.318Z,14.50
2017-08-26T06:39:46.756Z,8.00
2017-08-26T06:42:14.191Z,9.27
2017-08-26T06:44:41.618Z,7.70
2017-08-26T06:47:09.057Z,7.37
2017-08-26T06:49:36.497Z,6.63
2017-08-26T06:52:03.932Z,7.37
2017-08-26T06:54:31.369Z,6.50
2017-08-26T06:56:58.803Z,7.03
2017-08-26T06:59:26.248Z,7.17
2017-08-26T07:01:53.683Z,6.23
2017-08-26T07:04:21.116Z,7.83
2017-08-26T07:06:48.557Z,5.77
2017-08-26T07:09:16.003Z,11.43
2017-08-26T07:11:43.435Z,9.87
2017-08-26T07:14:10.908Z,5.10
2017-08-26T07:16:38.348Z,6.40
2017-08-26T07:19:05.788Z,6.83
2017-08-26T07:21:33.228Z,8.33
2017-08-26T07:24:00.689Z,12.90
2017-08-26T07:26:28.156Z,5.83
2017-08-26T07:28:55.595Z,5.70
2017-08-26T07:31:23.026Z,12.50
2017-08-26T07:33:50.471Z,7.03
2017-08-26T07:36:17.906Z,8.47
2017-08-26T07:38:45.342Z,6.80
2017-08-26T07:41:12.772Z,7.13
2017-08-26T07:43:40.219Z,7.00
2017-08-26T07:46:07.650Z,8.37
2017-08-26T07:48:35.093Z,5.90
2017-08-26T07:51:02.523Z,10.57
2017-08-26T07:53:29.964Z,5.77
2017-08-26T07:55:57.410Z,11.17
2017-08-26T07:58:24.844Z,6.07
2017-08-26T08:00:52.283Z,6.03
2017-08-26T08:03:19.717Z,6.80
2017-08-26T08:05:47.165Z,6.23
2017-08-26T08:08:14.604Z,6.23
2017-08-26T08:10:42.047Z,7.10
2017-08-26T08:13:09.481Z,6.40
2017-08-26T08:15:36.919Z,6.80
2017-08-26T08:18:04.355Z,9.60
2017-08-26T08:20:31.807Z,10.20
2017-08-26T08:22:59.238Z,8.20
2017-08-26T08:25:26.671Z,6.50
2017-08-26T08:27:54.103Z,6.70
2017-08-26T08:30:21.542Z,4.83
2017-08-26T08:32:48.980Z,7.13
2017-08-26T08:35:16.418Z,6.00
2017-08-26T08:37:43.868Z,12.27
2017-08-26T08:40:11.309Z,7.30
2017-08-26T08:42:38.743Z,8.20
2017-08-26T08:45:06.184Z,10.17
2017-08-26T08:47:33.624Z,8.00
2017-08-26T08:50:01.075Z,10.47
2017-08-26T08:52:28.506Z,8.50
2017-08-26T08:54:55.947Z,8.03
2017-08-26T08:57:23.395Z,8.53
2017-08-26T08:59:50.833Z,7.63
2017-08-26T09:02:18.268Z,8.10
2017-08-26T09:04:45.706Z,9.10
2017-08-26T09:07:13.142Z,6.77
2017-08-26T09:09:40.585Z,10.20
2017-08-26T09:12:08.017Z,6.07
2017-08-26T09:17:26.069Z,8.80
2017-08-26T09:19:53.496Z,7.83
2017-08-26T09:22:20.930Z,6.85
2017-08-26T09:24:48.363Z,8.67
2017-08-26T09:27:15.811Z,13.07
2017-08-26T09:29:43.250Z,7.30
2017-08-26T09:32:10.687Z,7.17
2017-08-26T09:34:38.119Z,6.67
2017-08-26T09:37:05.560Z,7.30
2017-08-26T09:39:32.993Z,7.83
2017-08-26T09:42:00.435Z,7.93
2017-08-26T09:44:27.869Z,7.67
2017-08-26T09:46:55.309Z,9.43
2017-08-26T09:49:22.743Z,6.07
2017-08-26T09:51:50.180Z,8.80
2017-08-26T09:54:17.617Z,12.10
2017-08-26T09:56:45.055Z,8.30
2017-08-26T09:59:12.490Z,8.30
2017-08-26T10:01:39.948Z,13.53
2017-08-26T10:04:07.382Z,7.00
2017-08-26T10:06:34.844Z,6.10
2017-08-26T10:09:02.290Z,7.60
2017-08-26T10:11:29.725Z,6.23
2017-08-26T10:13:57.167Z,8.30
2017-08-26T10:16:24.606Z,9.27
2017-08-26T10:18:52.056Z,9.37
2017-08-26T10:21:19.490Z,9.60
2017-08-26T10:23:46.918Z,5.40
2017-08-26T10:26:14.357Z,5.63
2017-08-26T10:28:41.791Z,7.37
2017-08-26T10:31:09.222Z,5.80
2017-08-26T10:33:36.674Z,5.62
2017-08-26T10:36:04.103Z,10.73
2017-08-26T10:38:31.542Z,6.47
2017-08-26T10:40:59.000Z,5.10
2017-08-26T10:43:26.423Z,7.67
2017-08-26T10:45:53.884Z,5.30
2017-08-26T10:48:21.305Z,5.53
2017-08-26T10:50:48.735Z,5.80
2017-08-26T10:53:16.170Z,6.27
2017-08-26T10:55:43.612Z,8.40
2017-08-26T10:58:11.055Z,8.27
2017-08-26T11:00:38.483Z,5.93
2017-08-26T11:03:05.920Z,8.10
2017-08-26T11:05:33.355Z,4.63
2017-08-26T11:08:00.817Z,6.77
2017-08-26T11:10:28.248Z,8.00
2017-08-26T11:12:55.685Z,9.57
2017-08-26T11:15:23.118Z,9.70
2017-08-26T11:17:50.555Z,6.70
2017-08-26T11:20:18.004Z,6.97
2017-08-26T11:22:45.434Z,8.90
2017-08-26T11:25:12.875Z,5.87
2017-08-26T11:27:40.304Z,10.67
2017-08-26T11:30:07.753Z,7.80
2017-08-26T11:32:35.175Z,6.93
2017-08-26T11:35:02.611Z,10.10
2017-08-26T11:37:30.051Z,7.70
2017-08-26T11:39:57.488Z,9.40
2017-08-26T11:42:24.924Z,7.37
2017-08-26T11:44:52.364Z,10.13
2017-08-26T11:47:19.804Z,11.80
2017-08-26T11:49:47.247Z,10.43
2017-08-26T11:52:14.682Z,6.47
2017-08-26T11:54:42.119Z,6.93
2017-08-26T11:57:09.556Z,7.73
2017-08-26T11:59:36.990Z,7.80
2017-08-26T12:02:04.427Z,6.13
2017-08-26T12:04:31.860Z,10.40
2017-08-26T12:06:59.298Z,6.67
2017-08-26T12:09:26.755Z,9.63
2017-08-26T12:11:54.188Z,7.97
2017-08-26T12:14:21.620Z,7.07
2017-08-26T12:16:49.060Z,6.83
2017-08-26T12:19:16.504Z,6.53
2017-08-26T12:21:43.942Z,8.43
2017-08-26T12:24:11.418Z,7.47
2017-08-26T12:26:38.876Z,5.67
2017-08-26T12:29:06.343Z,10.07
2017-08-26T12:31:33.779Z,10.13
2017-08-26T12:34:01.238Z,9.10
2017-08-26T12:36:28.670Z,7.20
2017-08-26T12:38:56.129Z,8.80
2017-08-26T12:41:23.568Z,6.53
2017-08-26T12:43:51.007Z,13.07
2017-08-26T12:46:18.449Z,8.47
2017-08-26T12:48:45.894Z,6.80
2017-08-26T12:51:13.366Z,8.43
2017-08-26T12:53:40.790Z,8.23
2017-08-26T12:56:08.226Z,6.60
2017-08-26T12:58:35.671Z,8.40
2017-08-26T13:01:03.150Z,4.90
2017-08-26T13:03:30.575Z,6.07
2017-08-26T13:05:58.008Z,10.40
2017-08-26T13:08:25.448Z,8.73
2017-08-26T13:10:52.880Z,13.00
2017-08-26T13:13:20.314Z,6.10
2017-08-26T13:15:47.756Z,6.27
2017-08-26T13:18:15.199Z,10.87
2017-08-26T13:20:42.633Z,8.70
2017-08-26T13:23:10.073Z,9.53
2017-08-26T13:25:37.511Z,4.77
2017-08-26T13:28:04.951Z,6.37
2017-08-26T13:30:32.382Z,7.03
2017-08-26T13:32:59.825Z,9.83
2017-08-26T13:35:27.259Z,6.77
2017-08-26T13:37:54.701Z,7.77
2017-08-26T13:40:22.134Z,9.43
2017-08-26T13:42:49.570Z,10.13
2017-08-26T13:45:17.009Z,9.53
2017-08-26T13:47:44.450Z,8.10
2017-08-26T13:50:11.883Z,15.87
2017-08-26T13:52:39.330Z,8.80
2017-08-26T13:55:06.768Z,14.00
2017-08-26T13:57:34.212Z,7.33
2017-08-26T14:00:01.656Z,12.50
2017-08-26T14:02:29.116Z,6.70
2017-08-26T14:04:56.547Z,6.13
2017-08-26T14:07:23.982Z,6.03
2017-08-26T14:09:51.427Z,15.33
2017-08-26T14:12:18.871Z,9.30
2017-08-26T14:14:46.306Z,6.80
2017-08-26T14:17:13.742Z,10.23
2017-08-26T14:19:41.183Z,6.63
2017-08-26T14:22:08.619Z,7.73
2017-08-26T14:24:36.059Z,8.90
2017-08-26T14:27:03.496Z,11.07
2017-08-26T14:29:30.938Z,13.93
2017-08-26T14:31:58.372Z,6.87
2017-08-26T14:34:25.807Z,8.40
2017-08-26T14:36:53.239Z,7.17
2017-08-26T14:39:20.693Z,7.13
2017-08-26T14:41:48.132Z,9.07
2017-08-26T14:44:15.558Z,6.97
2017-08-26T14:46:42.999Z,6.53
2017-08-26T14:49:10.444Z,12.57
2017-08-26T14:51:37.877Z,9.53
2017-08-26T14:54:05.313Z,11.87
2017-08-26T14:56:32.755Z,11.77
2017-08-26T14:59:00.200Z,10.07
2017-08-26T15:01:27.639Z,7.70
2017-08-26T15:03:55.087Z,8.50
2017-08-26T15:06:22.509Z,7.73
2017-08-26T15:08:49.952Z,6.73
2017-08-26T15:11:17.406Z,9.93
2017-08-26T15:13:44.849Z,17.73
2017-08-26T15:16:12.284Z,10.90
2017-08-26T15:18:39.722Z,5.80
2017-08-26T15:21:07.156Z,8.90
2017-08-26T15:23:34.603Z,9.07
2017-08-26T15:26:02.047Z,6.50
2017-08-26T15:28:29.483Z,6.80
2017-08-26T15:30:56.929Z,8.30
2017-08-26T15:33:24.358Z,8.87
2017-08-26T15:35:51.802Z,9.60
2017-08-26T15:38:19.241Z,12.53
2017-08-26T15:40:46.697Z,6.03
2017-08-26T15:43:14.120Z,7.80
2017-08-26T15:45:41.562Z,6.40
2017-08-26T15:48:09.005Z,8.33
2017-08-26T15:50:36.444Z,10.30
2017-08-26T15:53:03.879Z,11.30
2017-08-26T15:55:31.324Z,9.17
2017-08-26T15:57:58.762Z,8.67
2017-08-26T16:00:26.194Z,6.03
2017-08-26T16:02:53.628Z,12.67
2017-08-26T16:05:21.055Z,14.87
2017-08-26T16:07:48.499Z,9.35
2017-08-26T16:10:15.928Z,6.93
2017-08-26T16:12:43.368Z,9.23
2017-08-26T16:15:10.804Z,9.43
2017-08-26T16:17:38.235Z,7.33
2017-08-26T16:20:05.673Z,7.53
2017-08-26T16:22:33.114Z,10.10
2017-08-26T16:25:00.549Z,8.33
2017-08-26T16:27:27.990Z,9.03
2017-08-26T16:29:55.424Z,11.40
2017-08-26T16:32:22.863Z,10.43
2017-08-26T16:34:50.302Z,9.23
2017-08-26T16:37:17.734Z,11.30
2017-08-26T16:39:45.165Z,7.47
2017-08-26T16:42:12.611Z,7.47
2017-08-26T16:44:40.039Z,8.20
2017-08-26T16:47:07.491Z,13.43
2017-08-26T16:49:34.920Z,8.13
2017-08-26T16:52:02.360Z,10.37
2017-08-26T16:54:29.804Z,16.40
2017-08-26T16:56:57.269Z,9.67
2017-08-26T16:59:24.709Z,10.40
2017-08-26T17:01:52.156Z,14.63
2017-08-26T17:04:19.663Z,12.43
2017-08-26T17:06:47.102Z,7.97
2017-08-26T17:09:14.569Z,10.30
2017-08-26T17:11:42.086Z,11.80
2017-08-26T17:14:09.558Z,9.07
2017-08-26T17:16:37.003Z,11.07
2017-08-26T17:19:04.480Z,10.43
2017-08-26T17:21:31.937Z,11.13
2017-08-26T17:23:59.387Z,10.00
2017-08-26T17:26:26.836Z,12.97
2017-08-26T17:28:54.341Z,10.77
2017-08-26T17:31:21.779Z,9.87
2017-08-26T17:33:49.261Z,11.20
2017-08-26T17:36:16.722Z,14.10
2017-08-26T17:38:44.250Z,10.90
2017-08-26T17:41:11.715Z,15.27
2017-08-26T17:43:39.144Z,9.40
2017-08-26T17:46:06.592Z,12.50
2017-08-26T17:48:34.068Z,15.20
2017-08-26T17:51:01.495Z,11.70
2017-08-26T17:53:29.022Z,10.77
2017-08-26T17:55:56.480Z,16.07
2017-08-26T17:58:23.955Z,14.43
2017-08-26T18:00:51.449Z,12.00
2017-08-26T18:03:18.896Z,15.80
2017-08-26T18:05:46.402Z,11.07
2017-08-26T18:08:13.903Z,13.40
2017-08-26T18:10:41.347Z,15.03
2017-08-26T18:13:08.844Z,13.03
2017-08-26T18:15:36.485Z,14.03
2017-08-26T18:18:03.989Z,15.37
2017-08-26T18:20:31.455Z,14.33
2017-08-26T18:22:59.063Z,11.83
2017-08-26T18:25:26.520Z,15.37
2017-08-26T18:27:53.973Z,14.00
2017-08-26T18:30:21.436Z,17.17
2017-08-26T18:32:48.899Z,13.53
2017-08-26T18:35:16.392Z,13.30
2017-08-26T18:37:43.819Z,14.67
2017-08-26T18:40:11.303Z,14.20
2017-08-26T18:42:38.759Z,11.83
2017-08-26T18:45:06.198Z,16.47
2017-08-26T18:47:33.650Z,12.97
2017-08-26T18:50:01.095Z,16.90
2017-08-26T18:52:28.543Z,13.90
2017-08-26T18:54:56.214Z,15.40
2017-08-26T18:57:23.676Z,11.73
2017-08-26T18:59:51.132Z,12.43
2017-08-26T19:02:24.091Z,14.80
2017-08-26T19:05:05.561Z,16.63
2017-08-26T19:07:33.309Z,11.10
2017-08-26T19:10:01.563Z,12.13
2017-08-26T19:12:30.264Z,11.90
2017-08-26T19:15:01.795Z,15.27
2017-08-26T19:23:54.367Z,12.20
2017-08-26T19:26:22.230Z,13.93
2017-08-26T19:28:54.320Z,13.57
2017-08-26T19:34:04.261Z,13.60
2017-08-26T19:36:31.722Z,18.80
2017-08-26T19:38:59.164Z,17.27
2017-08-26T19:41:26.620Z,21.47
2017-08-26T19:43:54.061Z,15.63
2017-08-26T19:46:21.507Z,15.47
2017-08-26T19:48:49.627Z,13.27
2017-08-26T19:51:17.083Z,15.70
2017-08-26T19:53:44.531Z,15.23
2017-08-26T19:56:11.987Z,17.23
2017-08-26T19:58:39.430Z,16.90
2017-08-26T20:01:06.890Z,19.13
2017-08-26T20:03:34.323Z,12.60
2017-08-26T20:06:01.764Z,14.47
2017-08-26T20:08:29.215Z,13.77
2017-08-26T20:10:56.660Z,14.47
2017-08-26T20:13:24.141Z,14.77
2017-08-26T20:15:51.577Z,19.70
2017-08-26T20:18:19.026Z,17.43
2017-08-26T20:20:46.472Z,12.10
2017-08-26T20:23:13.923Z,19.73
2017-08-26T20:25:41.384Z,13.87
2017-08-26T20:28:08.842Z,18.20
2017-08-26T20:30:36.313Z,18.27
2017-08-26T20:33:03.789Z,12.97
2017-08-26T20:35:31.204Z,16.40
2017-08-26T20:37:58.676Z,14.50
2017-08-26T20:40:26.137Z,13.53
2017-08-26T20:42:53.571Z,14.87
2017-08-26T20:45:21.068Z,16.60
2017-08-26T20:47:48.520Z,14.23
2017-08-26T20:50:15.972Z,16.57
2017-08-26T20:52:43.436Z,14.17
2017-08-26T20:55:10.896Z,15.67
2017-08-26T20:57:38.694Z,21.90
2017-08-26T21:00:06.272Z,17.53
2017-08-26T21:02:33.784Z,14.50
2017-08-26T21:05:01.332Z,12.97
2017-08-26T21:07:28.883Z,14.67
2017-08-26T21:09:56.395Z,12.77
2017-08-26T21:12:23.985Z,14.13
2017-08-26T21:14:51.507Z,16.33
2017-08-26T21:17:19.026Z,18.70
2017-08-26T21:19:46.481Z,17.53
2017-08-26T21:22:14.767Z,12.17
2017-08-26T21:24:42.260Z,18.30
2017-08-26T21:27:09.759Z,12.43
2017-08-26T21:29:37.245Z,14.07
2017-08-26T21:32:04.729Z,17.10
2017-08-26T21:34:32.165Z,12.00
2017-08-26T21:36:59.673Z,20.00
2017-08-26T21:39:27.238Z,21.87
2017-08-26T21:41:54.669Z,13.43
2017-08-26T21:44:22.111Z,14.30
2017-08-26T21:46:49.555Z,11.83
2017-08-26T21:49:17.003Z,16.20
2017-08-26T21:51:44.443Z,16.23
2017-08-26T21:54:11.897Z,12.93
2017-08-26T21:56:39.336Z,17.73
2017-08-26T21:59:06.802Z,10.57
2017-08-26T22:01:34.235Z,9.03
2017-08-26T22:04:01.680Z,16.60
2017-08-26T22:06:29.125Z,12.07
2017-08-26T22:08:56.564Z,13.80
2017-08-26T22:11:24.011Z,15.57
2017-08-26T22:13:51.443Z,9.77
2017-08-26T22:16:18.892Z,14.43
2017-08-26T22:18:46.331Z,11.90
2017-08-26T22:21:13.785Z,10.73
2017-08-26T22:23:41.211Z,11.30
2017-08-26T22:26:08.654Z,9.43
2017-08-26T22:28:36.092Z,10.07
2017-08-26T22:31:03.538Z,11.10
2017-08-26T22:33:30.978Z,8.37
2017-08-26T22:35:58.424Z,19.30
2017-08-26T22:38:25.903Z,15.20
2017-08-26T22:40:53.575Z,8.93
2017-08-26T22:43:21.082Z,12.30
2017-08-26T22:45:48.555Z,13.00
2017-08-26T22:48:16.047Z,10.50
2017-08-26T22:50:43.504Z,14.13
2017-08-26T22:53:10.967Z,16.83
2017-08-26T22:55:38.467Z,17.30
2017-08-26T22:58:06.028Z,11.03
2017-08-26T23:00:33.524Z,11.43
2017-08-26T23:03:01.197Z,14.00
2017-08-26T23:05:28.830Z,8.60
2017-08-26T23:07:56.440Z,8.50
2017-08-26T23:10:23.942Z,8.83
2017-08-26T23:12:51.519Z,15.60
2017-08-26T23:15:19.032Z,13.77
2017-08-26T23:17:47.816Z,18.40
2017-08-26T23:20:15.288Z,12.07
2017-08-26T23:22:42.830Z,14.90
2017-08-26T23:25:10.462Z,15.43
2017-08-26T23:27:37.944Z,16.70
2017-08-26T23:30:05.449Z,12.67
2017-08-26T23:32:32.951Z,11.20
2017-08-26T23:35:00.475Z,14.80
2017-08-26T23:37:28.020Z,10.23
2017-08-26T23:39:55.533Z,12.40
2017-08-26T23:42:23.020Z,10.93
2017-08-26T23:44:50.520Z,12.70
2017-08-26T23:47:18.273Z,11.03
2017-08-26T23:49:45.784Z,11.17
2017-08-26T23:52:13.407Z,12.40
2017-08-26T23:54:41.051Z,9.40
2017-08-26T23:57:08.664Z,9.50
2017-08-26T23:59:36.269Z,17.10
